Latest Weather Observations for Skiway South*

IDT60801

Issued at 1:02 pm EST Sunday 25 June 2017 (issued every 30 minutes, with the page automatically refreshed every 10 minutes)

About weather observations | Map of weather stations | Latest weather observations for ANT | Other Formats
Station Details ID: 300060 Name: CASEY SKIWAY SOUTH Lat: -66.28 Lon: 110.76 Height: 390.0 m
Data from the previous 72 hours. | See also: Recent months for locations in Antarctica
Date/Time
EST
Temp
°C
App
Temp
°C
Dew
Point
°C
Rel
Hum
%
Delta-T
°C
Wind Press
QNH
hPa
Press
MSL
hPa
Rain since
9am
mm
Dir  Spd
km/h
Gust
km/h
Spd
kts
Gust
kts
25/12:30pm -24.5 -29.4 -27.1 79 0.0 ENE 6 7 3 4 974.1 - -
25/12:00pm -26.5 -32.4 -29.0 79 0.0 E 11 13 6 7 974.2 - -
25/11:30am -26.0 -31.5 -28.3 81 0.0 E 9 13 5 7 974.2 - -
25/11:00am -25.1 -31.0 -27.3 82 0.0 ESE 11 13 6 7 974.0 - -
25/10:30am -25.9 -31.0 -28.6 78 0.0 ESE 7 9 4 5 974.0 - -
25/10:00am -24.9 -29.8 -28.0 75 0.0 E 6 7 3 4 974.1 - -
25/09:30am -25.5 -30.6 -29.2 71 0.1 E 7 9 4 5 974.0 - -
25/09:00am -28.4 -35.1 -33.2 63 0.1 E 15 17 8 9 974.0 - -
25/08:30am -24.5 -29.7 -29.5 63 0.2 E 7 9 4 5 974.0 - -
25/08:00am -24.4 -29.6 -31.2 53 0.3 ESE 7 9 4 5 974.2 - -
25/07:30am -24.4 -29.6 -31.6 51 0.3 SE 7 9 4 5 974.3 - -
25/07:00am -28.3 -34.3 -34.1 58 0.2 S 11 13 6 7 974.2 - -
25/06:30am -28.5 -34.9 -33.8 60 0.1 SSE 13 17 7 9 974.0 - -
25/06:00am -25.2 -30.4 -30.5 61 0.2 SSE 7 9 4 5 973.9 - -
25/05:30am -27.9 -33.5 -33.7 58 0.2 SE 9 13 5 7 974.0 - -
25/05:00am -24.9 -30.4 -29.5 66 0.1 E 9 11 5 6 974.2 - -
25/04:30am -26.6 -32.9 -32.3 59 0.2 ESE 13 17 7 9 974.2 - -
25/04:00am -25.4 -32.5 -32.3 53 0.3 E 17 19 9 10 974.4 - -
25/03:30am -22.6 -28.5 -29.3 54 0.3 ENE 11 13 6 7 974.5 - -
25/03:00am -22.6 -28.1 -29.7 52 0.4 NE 9 11 5 6 974.8 - -
25/02:30am -23.0 -31.0 -29.9 53 0.3 E 22 28 12 15 974.4 - -
25/02:00am -24.4 -33.9 -30.8 55 0.3 E 30 32 16 17 974.3 - -
25/01:43am -23.4 -32.6 -31.5 47 0.4 E 28 32 15 17 974.3 - -
25/01:30am -21.7 -26.9 -29.3 50 0.4 E 7 13 4 7 974.3 - -
25/01:00am -22.9 -29.2 -30.0 52 0.4 E 13 17 7 9 974.1 - -
25/12:30am -23.1 -30.2 -30.2 52 0.4 ESE 17 26 9 14 974.2 - -
25/12:00am -23.1 -30.7 -30.2 52 0.4 E 20 24 11 13 974.5 - -
 
Date/Time
EST
Temp
°C
App
Temp
°C
Dew
Point
°C
Rel
Hum
%
Delta-T
°C
Wind Press
QNH
hPa
Press
MSL
hPa
Rain since
9am
mm
Dir  Spd
km/h
Gust
km/h
Spd
kts
Gust
kts
24/11:30pm -21.7 -28.7 -28.9 52 0.4 E 17 22 9 12 974.7 - -
24/11:00pm -21.6 -30.3 -27.8 57 0.3 E 26 28 14 15 974.8 - -
24/10:30pm -20.9 -30.7 -26.6 60 0.3 E 32 39 17 21 974.7 - -
24/10:00pm -22.6 -30.9 -27.0 67 0.2 ENE 24 37 13 20 975.0 - -
24/09:46pm -22.0 -30.3 -26.6 66 0.2 ENE 24 46 13 25 975.4 - -
24/09:30pm -21.0 -32.9 -25.8 65 0.2 ESE 43 48 23 26 974.9 - -
24/09:00pm -22.0 -35.3 -26.0 70 0.2 SE 50 56 27 30 974.3 - -
24/08:30pm -23.8 -38.2 -27.4 72 0.1 ESE 56 61 30 33 974.2 - -
24/08:00pm -23.7 -38.1 -27.3 72 0.1 SE 56 63 30 34 974.4 - -
24/07:30pm -23.7 -38.1 -27.3 72 0.1 SE 56 63 30 34 974.5 - -
24/07:00pm -23.1 -37.7 -26.7 72 0.1 SE 57 67 31 36 974.6 - -
24/06:30pm -22.4 -36.4 -25.9 73 0.1 SE 54 63 29 34 974.6 - -
24/06:00pm -23.1 -37.5 -26.6 73 0.1 SE 56 65 30 35 973.8 - -
24/05:30pm -23.1 -37.1 -26.6 73 0.1 SE 54 69 29 37 974.1 - -
24/05:00pm -23.6 -38.6 -26.9 74 0.1 SE 59 67 32 36 973.7 - -
24/04:30pm -24.0 -39.4 -27.1 76 0.0 SE 61 74 33 40 972.7 - -
24/04:00pm -23.8 -39.2 -27.0 75 0.1 SE 61 67 33 36 973.5 - -
24/03:30pm -23.7 -39.4 -26.9 75 0.1 SE 63 70 34 38 973.2 - -
24/03:00pm -23.6 -38.0 -26.8 75 0.1 SE 56 67 30 36 973.5 - -
24/02:30pm -23.4 -38.0 -26.6 75 0.1 SE 57 67 31 36 973.2 - -
24/02:00pm -23.3 -37.7 -26.5 75 0.1 SE 56 63 30 34 973.3 - -
24/01:30pm -23.3 -38.3 -26.3 76 0.0 SE 59 69 32 37 972.8 - -
24/01:00pm -22.9 -37.9 -25.9 76 0.0 SE 59 69 32 37 973.3 - -
24/12:30pm -23.4 -35.5 -26.9 73 0.1 SE 44 54 24 29 973.7 - -
24/12:28pm -23.4 -35.3 -27.0 72 0.1 SE 43 50 23 27 973.7 - -
24/12:00pm -23.1 -35.2 -26.9 71 0.1 SSE 44 54 24 29 974.0 - -
24/11:30am -23.5 -33.0 -27.4 70 0.1 S 30 39 16 21 974.5 - -
24/11:00am -24.9 -35.0 -28.5 72 0.1 S 33 41 18 22 974.3 - -
24/10:30am -25.4 -35.5 -28.9 72 0.1 S 33 43 18 23 974.2 - -
24/10:10am -24.5 -35.3 -27.8 74 0.1 S 37 46 20 25 973.8 - -
24/10:00am -25.5 -33.9 -28.6 75 0.0 SSE 24 32 13 17 973.9 - -
24/09:30am -25.9 -34.7 -29.3 73 0.0 SSE 26 33 14 18 974.5 - -
24/09:00am -25.4 -33.0 -28.5 75 0.0 SSE 20 28 11 15 974.3 - -
24/08:30am -25.7 -33.1 -28.8 75 0.0 S 19 22 10 12 974.2 - -
24/08:00am -22.7 -30.6 -25.5 78 0.0 S 22 24 12 13 974.2 - -
24/07:30am -20.1 -27.4 -22.5 81 0.0 SSW 19 24 10 13 974.1 - -
24/07:00am -19.5 -26.8 -21.8 82 0.0 S 19 20 10 11 974.0 - -
24/06:30am -20.3 -27.2 -22.7 81 0.0 SE 17 20 9 11 973.8 - -
24/06:00am -20.9 -28.4 -23.3 81 0.0 ESE 20 24 11 13 973.8 - -
24/05:30am -21.0 -28.9 -23.5 80 0.0 E 22 26 12 14 974.0 - -
24/05:00am -21.0 -28.9 -23.4 81 0.0 ENE 22 26 12 14 973.8 - -
24/04:30am -21.0 -28.5 -23.4 81 0.0 ENE 20 24 11 13 973.9 - -
24/04:00am -21.0 -28.3 -23.4 81 0.0 NNE 19 22 10 12 974.6 - -
24/03:30am -21.8 -28.4 -24.3 80 0.0 NE 15 19 8 10 974.8 - -
24/03:00am -22.6 -28.0 -25.2 79 0.0 NNE 9 13 5 7 975.0 - -
24/02:30am -22.4 -27.8 -24.9 80 0.0 NNW 9 11 5 6 975.0 - -
24/02:00am -21.9 -27.7 -24.4 80 0.0 WNW 11 13 6 7 974.6 - -
24/01:30am -20.6 -26.8 -23.0 81 0.0 WSW 13 19 7 10 974.6 - -
24/01:00am -20.2 -26.3 -22.5 82 0.0 SW 13 17 7 9 974.7 - -
24/12:30am -20.1 -26.6 -22.2 83 0.0 SW 15 17 8 9 975.1 - -
24/12:00am -20.1 -26.2 -22.4 82 0.0 SW 13 17 7 9 975.1 - -
 
Date/Time
EST
Temp
°C
App
Temp
°C
Dew
Point
°C
Rel
Hum
%
Delta-T
°C
Wind Press
QNH
hPa
Press
MSL
hPa
Rain since
9am
mm
Dir  Spd
km/h
Gust
km/h
Spd
kts
Gust
kts
23/11:30pm -19.7 -26.2 -22.1 81 0.0 SW 15 17 8 9 975.6 - -
23/11:00pm -19.5 -26.0 -21.9 81 0.0 SW 15 17 8 9 975.8 - -
23/10:30pm -19.5 -26.4 -21.9 81 0.0 SSW 17 19 9 10 975.7 - -
23/10:00pm -19.7 -25.8 -22.1 81 0.0 SSW 13 15 7 8 976.2 - -
23/09:30pm -20.0 -25.4 -22.4 81 0.0 SW 9 11 5 6 976.7 - -
23/09:00pm -19.8 -25.2 -22.2 81 0.0 W 9 11 5 6 977.1 - -
23/08:30pm -19.1 -24.8 -21.7 80 0.1 W 11 15 6 8 977.3 - -
23/08:00pm -18.5 -24.6 -21.2 79 0.1 S 13 17 7 9 977.2 - -
23/07:30pm -18.7 -26.1 -21.3 80 0.1 SSE 20 26 11 14 977.5 - -
23/07:00pm -18.7 -26.5 -21.3 80 0.1 S 22 30 12 16 978.5 - -
23/06:30pm -18.3 -25.1 -20.9 80 0.1 S 17 22 9 12 979.1 - -
23/06:00pm -18.2 -25.0 -20.8 80 0.1 S 17 20 9 11 979.7 - -
23/05:30pm -18.4 -24.5 -21.1 79 0.1 SSE 13 15 7 8 980.1 - -
23/05:00pm -18.6 -24.0 -21.9 75 0.1 S 9 11 5 6 980.9 - -
23/04:30pm -18.4 -22.8 -22.5 70 0.2 S 4 6 2 3 981.7 - -
23/04:00pm -18.2 -22.7 -23.7 62 0.4 S 4 6 2 3 982.1 - -
23/03:30pm -18.2 -23.3 -24.6 57 0.5 W 7 9 4 5 982.9 - -
23/03:00pm -16.7 -22.1 -25.1 48 0.8 NW 9 19 5 10 982.9 - -
23/02:30pm -15.7 -23.6 -24.2 48 0.8 E 22 24 12 13 982.9 - -
23/02:00pm -15.9 -24.2 -24.3 48 0.8 ENE 24 28 13 15 983.1 - -
23/01:30pm -15.8 -24.5 -24.5 47 0.9 ENE 26 30 14 16 983.8 - -
23/01:00pm -16.0 -24.3 -24.4 48 0.8 E 24 26 13 14 984.5 - -
23/12:30pm -16.2 -24.9 -24.6 48 0.8 ENE 26 28 14 15 984.9 - -
23/12:00pm -16.4 -23.9 -24.8 48 0.8 E 20 32 11 17 985.1 - -
23/11:30am -17.1 -24.4 -25.0 50 0.7 E 19 20 10 11 985.5 - -
23/11:00am -18.0 -26.3 -25.6 51 0.6 E 24 26 13 14 985.9 - -
23/10:30am -17.9 -26.6 -25.5 51 0.6 E 26 32 14 17 986.3 - -
23/10:00am -18.5 -30.4 -24.1 61 0.4 ESE 43 50 23 27 986.2 - -
23/09:30am -19.4 -30.2 -24.5 64 0.3 ESE 37 43 20 23 987.0 - -
23/09:00am -19.5 -30.7 -25.3 60 0.4 ESE 39 43 21 23 987.3 - -
23/08:30am -18.9 -29.7 -25.4 56 0.5 ESE 37 41 20 22 987.5 - -
23/08:00am -19.0 -30.2 -25.5 56 0.5 E 39 46 21 25 987.6 - -
23/07:57am -18.8 -30.3 -25.8 54 0.5 ESE 41 46 22 25 987.7 - -
23/07:30am -18.9 -29.3 -26.3 52 0.6 E 35 50 19 27 988.1 - -
23/07:26am -19.6 -29.6 -25.9 57 0.4 ENE 33 46 18 25 988.2 - -
23/07:17am -19.3 -30.1 -26.2 54 0.5 ESE 37 46 20 25 988.0 - -
23/07:07am -19.7 -28.4 -25.6 59 0.4 ENE 26 46 14 25 988.6 - -
23/07:00am -19.3 -30.8 -25.6 57 0.4 ESE 41 46 22 25 988.2 - -
23/06:30am -18.8 -30.4 -26.2 52 0.6 ESE 41 48 22 26 988.6 - -
23/06:00am -19.3 -30.8 -25.8 56 0.5 ESE 41 50 22 27 988.3 - -
23/05:30am -19.6 -32.1 -25.7 58 0.4 ESE 46 54 25 29 988.3 - -
23/05:00am -19.7 -32.6 -25.6 59 0.4 ESE 48 57 26 31 988.0 - -
23/04:30am -19.6 -32.1 -25.9 57 0.4 SE 46 54 25 29 988.4 - -
23/04:00am -19.6 -32.1 -26.5 54 0.5 SE 46 56 25 30 988.7 - -
23/03:30am -19.5 -31.4 -26.6 53 0.5 SE 43 50 23 27 989.0 - -
23/03:00am -19.4 -31.0 -26.7 52 0.5 SE 41 44 22 24 989.3 - -
23/02:30am -19.8 -32.3 -26.7 54 0.5 SE 46 52 25 28 989.0 - -
23/02:00am -20.2 -32.2 -27.5 52 0.5 SE 43 46 23 25 989.5 - -
23/01:30am -20.3 -32.4 -27.4 53 0.5 SE 44 50 24 27 989.2 - -
23/01:00am -20.0 -33.3 -26.9 54 0.5 SE 50 56 27 30 988.9 - -
23/12:30am -20.2 -32.4 -27.7 51 0.5 SE 44 52 24 28 988.9 - -
23/12:00am -20.3 -32.8 -27.4 53 0.5 SE 46 54 25 29 989.1 - -
 
Date/Time
EST
Temp
°C
App
Temp
°C
Dew
Point
°C
Rel
Hum
%
Delta-T
°C
Wind Press
QNH
hPa
Press
MSL
hPa
Rain since
9am
mm
Dir  Spd
km/h
Gust
km/h
Spd
kts
Gust
kts
22/11:30pm -20.2 -32.4 -27.7 51 0.5 SE 44 50 24 27 989.0 - -

Other Formats:

Comma delimited format used in spreadsheet applications
http://www.bom.gov.au/fwo/IDT60803/IDT60803.89809.axf

JavaScript Object Notation format (JSON) in row-major order
http://www.bom.gov.au/fwo/IDT60803/IDT60803.89809.json